createdAt,value
2022-11-08T00:02:23.875Z,11.63
2022-11-08T00:05:45.072Z,11.70
2022-11-08T00:09:06.078Z,12.35
2022-11-08T00:12:27.756Z,11.53
2022-11-08T00:15:33.586Z,10.73
2022-11-08T00:18:36.397Z,11.12
2022-11-08T00:21:39.198Z,10.77
2022-11-08T00:24:41.877Z,11.30
2022-11-08T00:27:44.462Z,11.93
2022-11-08T00:30:46.921Z,10.47
2022-11-08T00:33:49.699Z,11.75
2022-11-08T00:36:53.763Z,10.43
2022-11-08T00:39:56.245Z,9.48
2022-11-08T00:42:58.299Z,9.80
2022-11-08T00:46:00.383Z,10.43
2022-11-08T00:49:02.525Z,10.13
2022-11-08T00:52:04.907Z,10.50
2022-11-08T00:55:07.407Z,11.02
2022-11-08T00:58:09.352Z,10.70
2022-11-08T01:01:13.701Z,10.20
2022-11-08T01:04:18.688Z,11.35
2022-11-08T01:07:20.711Z,10.00
2022-11-08T01:10:22.637Z,10.55
2022-11-08T01:13:24.719Z,9.93
2022-11-08T01:16:29.791Z,11.13
2022-11-08T01:19:31.858Z,10.40
2022-11-08T01:22:33.837Z,9.70
2022-11-08T01:25:37.772Z,11.20
2022-11-08T01:28:39.920Z,10.47
2022-11-08T01:31:41.994Z,10.40
2022-11-08T01:34:43.890Z,9.88
2022-11-08T01:37:45.945Z,9.07
2022-11-08T01:40:49.230Z,11.07
2022-11-08T01:43:59.220Z,10.93
2022-11-08T01:47:01.189Z,11.37
2022-11-08T01:50:08.233Z,11.12
2022-11-08T01:53:10.380Z,10.65
2022-11-08T01:56:14.706Z,10.55
2022-11-08T01:59:18.664Z,12.33
2022-11-08T02:02:21.534Z,13.17
2022-11-08T02:05:26.574Z,11.45
2022-11-08T02:08:38.644Z,13.10
2022-11-08T02:11:41.597Z,13.68
2022-11-08T02:14:43.576Z,18.77
2022-11-08T02:17:45.612Z,15.80
2022-11-08T02:21:02.875Z,19.77
2022-11-08T02:24:11.028Z,15.15
2022-11-08T02:27:14.595Z,13.25
2022-11-08T02:30:16.701Z,10.93
2022-11-08T02:33:21.225Z,11.83
2022-11-08T02:36:25.137Z,12.98
2022-11-08T02:39:27.297Z,12.05
2022-11-08T02:42:29.263Z,13.25
2022-11-08T02:45:31.339Z,16.87
2022-11-08T02:48:33.426Z,14.90
2022-11-08T02:51:35.498Z,12.68
2022-11-08T02:54:37.573Z,12.85
2022-11-08T02:57:39.566Z,14.05
2022-11-08T03:00:41.652Z,13.87
2022-11-08T03:03:43.658Z,12.00
2022-11-08T03:06:45.633Z,12.90
2022-11-08T03:09:47.662Z,12.30
2022-11-08T03:13:00.351Z,12.43
2022-11-08T03:16:04.322Z,13.20
2022-11-08T03:19:06.312Z,13.90
2022-11-08T03:22:08.349Z,12.55
2022-11-08T03:25:10.633Z,10.57
2022-11-08T03:28:12.633Z,11.98
2022-11-08T03:31:14.607Z,11.37
2022-11-08T03:34:16.871Z,11.13
2022-11-08T03:37:18.934Z,11.85
2022-11-08T03:40:21.597Z,9.35
2022-11-08T03:43:23.570Z,9.80
2022-11-08T03:46:25.674Z,7.73
2022-11-08T03:49:28.121Z,9.90
2022-11-08T03:52:30.108Z,10.55
2022-11-08T03:55:32.171Z,9.85
2022-11-08T03:58:35.626Z,9.73
2022-11-08T04:01:38.450Z,10.10
2022-11-08T04:04:40.566Z,10.80
2022-11-08T04:07:43.381Z,9.13
2022-11-08T04:10:45.482Z,7.30
2022-11-08T04:14:06.094Z,7.78
2022-11-08T04:17:08.046Z,7.80
2022-11-08T04:20:29.194Z,7.93
2022-11-08T04:23:32.571Z,4.65
2022-11-08T04:26:34.591Z,7.68
2022-11-08T04:29:36.677Z,9.48
2022-11-08T04:32:38.620Z,6.97
2022-11-08T04:35:40.669Z,9.27
2022-11-08T04:38:43.097Z,8.73
2022-11-08T04:41:45.133Z,7.62
2022-11-08T04:44:47.152Z,9.18
2022-11-08T04:47:49.554Z,7.33
2022-11-08T04:50:51.515Z,9.60
2022-11-08T04:53:55.550Z,8.57
2022-11-08T04:56:57.552Z,8.60
2022-11-08T04:59:59.532Z,10.20
2022-11-08T05:03:04.501Z,11.20
2022-11-08T05:06:10.571Z,10.43
2022-11-08T05:09:12.552Z,10.15
2022-11-08T05:12:14.523Z,10.80
2022-11-08T05:15:16.447Z,11.50
2022-11-08T05:18:18.836Z,10.33
2022-11-08T05:21:41.477Z,11.53
2022-11-08T05:24:43.465Z,10.40
2022-11-08T05:27:45.499Z,10.48
2022-11-08T05:30:57.258Z,12.27
2022-11-08T05:34:00.893Z,11.60
2022-11-08T05:37:02.974Z,10.63
2022-11-08T05:40:05.543Z,11.57
2022-11-08T05:43:07.784Z,12.57
2022-11-08T05:46:09.801Z,10.80
2022-11-08T05:49:12.004Z,10.73
2022-11-08T05:52:13.977Z,11.53
2022-11-08T05:55:16.016Z,12.40
2022-11-08T05:58:18.184Z,12.15
2022-11-08T06:01:20.583Z,27.45
2022-11-08T06:04:22.538Z,24.20
2022-11-08T06:07:24.709Z,14.90
2022-11-08T06:10:26.998Z,18.35
2022-11-08T06:13:29.388Z,20.05
2022-11-08T06:16:31.796Z,18.37
2022-11-08T06:19:33.723Z,23.93
2022-11-08T06:22:36.112Z,20.97
2022-11-08T06:25:38.204Z,20.25
2022-11-08T06:28:40.225Z,20.35
2022-11-08T06:31:43.300Z,20.75
2022-11-08T06:34:49.257Z,18.40
2022-11-08T06:37:51.322Z,17.00
2022-11-08T06:40:53.925Z,18.52
2022-11-08T06:43:56.281Z,20.80
2022-11-08T06:46:59.937Z,19.23
2022-11-08T06:50:01.902Z,15.40
2022-11-08T06:53:06.478Z,14.83
2022-11-08T06:56:09.041Z,13.93
2022-11-08T06:59:11.584Z,11.93
2022-11-08T07:02:13.915Z,10.57
2022-11-08T07:05:15.944Z,11.20
2022-11-08T07:08:23.328Z,12.23
2022-11-08T07:11:26.283Z,12.10
2022-11-08T07:14:28.358Z,11.75
2022-11-08T07:17:34.271Z,13.07
2022-11-08T07:20:40.203Z,11.23
2022-11-08T07:23:42.217Z,13.10
2022-11-08T07:26:44.271Z,12.60
2022-11-08T07:29:46.625Z,14.30
2022-11-08T07:32:48.866Z,18.92
2022-11-08T07:35:50.843Z,19.97
2022-11-08T07:38:52.897Z,23.70
2022-11-08T07:41:54.906Z,14.13
2022-11-08T07:44:56.828Z,11.02
2022-11-08T07:48:00.271Z,9.70
2022-11-08T07:51:02.249Z,8.60
2022-11-08T07:54:04.279Z,6.70
2022-11-08T07:57:06.304Z,7.80
2022-11-08T08:00:09.175Z,7.10
2022-11-08T08:03:14.013Z,7.30
2022-11-08T08:06:15.984Z,6.43
2022-11-08T08:09:18.035Z,6.40
2022-11-08T08:12:20.014Z,6.50
2022-11-08T08:15:22.446Z,7.30
2022-11-08T08:18:24.438Z,7.18
2022-11-08T08:21:26.406Z,7.60
2022-11-08T08:24:28.341Z,7.60
2022-11-08T08:27:30.293Z,8.10
2022-11-08T08:30:32.730Z,7.78
2022-11-08T08:33:34.994Z,8.65
2022-11-08T08:36:37.021Z,10.10
2022-11-08T08:39:39.057Z,6.43
2022-11-08T08:42:41.080Z,7.68
2022-11-08T08:45:43.804Z,6.53
2022-11-08T08:48:45.777Z,7.90
2022-11-08T08:51:47.783Z,7.03
2022-11-08T08:54:50.210Z,7.23
2022-11-08T08:57:52.261Z,6.97
2022-11-08T09:04:16.500Z,8.23
2022-11-08T09:07:18.725Z,7.90
2022-11-08T09:10:21.139Z,8.30
2022-11-08T09:13:24.626Z,7.85
2022-11-08T09:16:26.834Z,7.40
2022-11-08T09:19:28.801Z,7.47
2022-11-08T09:22:33.367Z,7.13
2022-11-08T09:25:35.396Z,7.07
2022-11-08T09:28:37.596Z,6.00
2022-11-08T09:31:39.733Z,6.12
2022-11-08T09:34:41.750Z,6.93
2022-11-08T09:37:47.104Z,7.10
2022-11-08T09:40:57.696Z,6.40
2022-11-08T09:44:08.295Z,7.25
2022-11-08T09:47:19.309Z,6.97
2022-11-08T09:50:31.330Z,7.10
2022-11-08T09:53:49.579Z,6.67
2022-11-08T09:56:53.983Z,6.83
2022-11-08T10:00:05.934Z,7.05
2022-11-08T10:03:15.605Z,6.72
2022-11-08T10:06:20.924Z,7.07
2022-11-08T10:09:25.745Z,7.72
2022-11-08T10:13:01.374Z,7.67
2022-11-08T10:16:09.422Z,8.27
2022-11-08T10:19:11.335Z,6.25
2022-11-08T10:22:41.152Z,7.75
2022-11-08T10:25:47.297Z,7.53
2022-11-08T10:28:55.180Z,6.20
2022-11-08T10:32:05.589Z,8.00
2022-11-08T10:35:34.966Z,6.97
2022-11-08T10:39:01.437Z,7.53
2022-11-08T10:42:13.912Z,8.23
2022-11-08T10:45:16.019Z,7.40
2022-11-08T10:48:18.322Z,6.43
2022-11-08T10:51:20.472Z,6.53
2022-11-08T10:54:51.296Z,6.70
2022-11-08T10:57:53.753Z,6.35
2022-11-08T11:01:17.741Z,6.43
2022-11-08T11:04:27.962Z,6.72
2022-11-08T11:07:36.528Z,8.55
2022-11-08T11:10:39.843Z,7.00
2022-11-08T11:13:41.791Z,8.35
2022-11-08T11:17:14.285Z,7.40
2022-11-08T11:20:23.168Z,6.53
2022-11-08T11:23:52.454Z,7.28
2022-11-08T11:26:57.552Z,6.55
2022-11-08T11:30:15.282Z,8.60
2022-11-08T11:33:27.712Z,7.90
2022-11-08T11:36:30.523Z,7.03
2022-11-08T11:39:54.372Z,6.97
2022-11-08T11:43:16.673Z,6.72
2022-11-08T11:46:31.597Z,6.78
2022-11-08T11:49:36.011Z,8.23
2022-11-08T11:52:38.103Z,7.30
2022-11-08T11:56:05.778Z,6.15
2022-11-08T11:59:40.128Z,8.63
2022-11-08T12:03:11.143Z,8.77
2022-11-08T12:06:25.873Z,7.63
2022-11-08T12:09:46.565Z,7.70
2022-11-08T12:13:22.687Z,9.00
2022-11-08T12:16:43.063Z,7.53
2022-11-08T12:19:57.406Z,7.80
2022-11-08T12:23:24.737Z,7.77
2022-11-08T12:26:40.999Z,8.07
2022-11-08T12:29:48.938Z,7.32
2022-11-08T12:33:09.803Z,7.65
2022-11-08T12:36:37.263Z,8.50
2022-11-08T12:39:59.625Z,9.73
2022-11-08T12:43:05.517Z,9.40
2022-11-08T12:46:19.154Z,9.15
2022-11-08T12:49:36.777Z,8.35
2022-11-08T12:52:53.979Z,9.85
2022-11-08T12:55:58.089Z,8.93
2022-11-08T12:59:01.414Z,8.90
2022-11-08T13:02:05.114Z,7.15
2022-11-08T13:05:21.111Z,9.00
2022-11-08T13:08:35.781Z,9.77
2022-11-08T13:12:07.198Z,8.67
2022-11-08T13:15:22.110Z,7.97
2022-11-08T13:18:33.340Z,9.13
2022-11-08T13:21:39.094Z,7.28
2022-11-08T13:24:44.726Z,7.50
2022-11-08T13:27:48.537Z,7.83
2022-11-08T13:31:02.075Z,7.93
2022-11-08T13:34:12.558Z,8.88
2022-11-08T13:37:51.804Z,8.15
2022-11-08T13:41:02.724Z,8.18
2022-11-08T13:44:43.297Z,6.60
2022-11-08T13:47:48.066Z,7.60
2022-11-08T13:51:27.960Z,8.65
2022-11-08T13:54:48.727Z,7.40
2022-11-08T13:57:58.170Z,5.68
2022-11-08T14:01:02.046Z,8.60
2022-11-08T14:04:24.172Z,6.25
2022-11-08T14:07:46.508Z,7.30
2022-11-08T14:11:00.243Z,7.22
2022-11-08T14:14:34.000Z,8.50
2022-11-08T14:17:59.338Z,9.00
2022-11-08T14:21:04.009Z,7.60
2022-11-08T14:24:15.192Z,8.65
2022-11-08T14:27:33.645Z,8.07
2022-11-08T14:30:35.757Z,10.00
2022-11-08T14:33:42.730Z,8.50
2022-11-08T14:36:45.340Z,5.55
2022-11-08T14:39:48.213Z,8.20
2022-11-08T14:42:51.721Z,8.80
2022-11-08T14:45:54.264Z,8.98
2022-11-08T14:48:58.319Z,10.67
2022-11-08T14:52:19.129Z,8.50
2022-11-08T14:55:25.572Z,9.30
2022-11-08T14:58:29.940Z,6.22
2022-11-08T15:01:33.527Z,8.50
2022-11-08T15:04:40.702Z,6.10
2022-11-08T15:07:46.939Z,8.70
2022-11-08T15:11:03.569Z,8.60
2022-11-08T15:14:09.848Z,11.02
2022-11-08T15:17:32.456Z,10.33
2022-11-08T15:20:34.693Z,9.47
2022-11-08T15:23:47.063Z,9.57
2022-11-08T15:27:13.559Z,6.68
2022-11-08T15:30:21.655Z,12.07
2022-11-08T15:33:38.059Z,12.27
2022-11-08T15:36:40.987Z,12.10
2022-11-08T15:39:46.574Z,10.10
2022-11-08T15:42:51.813Z,7.60
2022-11-08T15:45:54.341Z,10.18
2022-11-08T15:48:59.213Z,8.27
2022-11-08T15:52:03.599Z,5.93
2022-11-08T15:55:07.953Z,8.75
2022-11-08T15:58:28.720Z,7.90
2022-11-08T16:01:32.109Z,10.07
2022-11-08T16:04:35.475Z,9.10
2022-11-08T16:07:38.447Z,8.90
2022-11-08T16:10:47.659Z,8.27
2022-11-08T16:13:51.955Z,8.65
2022-11-08T16:16:58.355Z,10.25
2022-11-08T16:20:02.653Z,12.97
2022-11-08T16:23:11.619Z,11.53
2022-11-08T16:26:18.536Z,11.85
2022-11-08T16:29:25.000Z,13.73
2022-11-08T16:32:29.158Z,14.15
2022-11-08T16:35:41.578Z,11.27
2022-11-08T16:38:56.920Z,10.47
2022-11-08T16:42:00.118Z,11.27
2022-11-08T16:45:02.879Z,9.93
2022-11-08T16:48:06.505Z,10.45
2022-11-08T16:51:18.536Z,8.53
2022-11-08T16:54:25.094Z,8.53
2022-11-08T16:57:34.654Z,12.73
2022-11-08T17:00:46.563Z,10.52
2022-11-08T17:03:50.040Z,11.10
2022-11-08T17:06:54.055Z,8.40
2022-11-08T17:09:57.313Z,9.33
2022-11-08T17:13:00.567Z,9.13
2022-11-08T17:16:03.574Z,11.57
2022-11-08T17:19:06.817Z,12.85
2022-11-08T17:22:09.633Z,13.50
2022-11-08T17:25:16.667Z,11.67
2022-11-08T17:28:19.663Z,12.07
2022-11-08T17:31:23.724Z,12.18
2022-11-08T17:34:27.548Z,11.82
2022-11-08T17:37:30.973Z,13.20
2022-11-08T17:40:36.679Z,10.80
2022-11-08T17:43:40.322Z,12.73
2022-11-08T17:46:43.828Z,11.05
2022-11-08T17:49:46.741Z,10.13
2022-11-08T17:52:53.883Z,10.83
2022-11-08T17:56:00.431Z,10.93
2022-11-08T17:59:04.188Z,10.13
2022-11-08T18:02:07.853Z,9.25
2022-11-08T18:05:17.074Z,8.40
2022-11-08T18:08:26.495Z,12.03
2022-11-08T18:11:30.007Z,12.30
2022-11-08T18:14:33.179Z,12.32
2022-11-08T18:17:36.937Z,12.65
2022-11-08T18:20:40.275Z,9.18
2022-11-08T18:23:48.594Z,13.27
2022-11-08T18:26:52.417Z,13.73
2022-11-08T18:29:57.782Z,13.90
2022-11-08T18:33:00.832Z,12.00
2022-11-08T18:36:05.691Z,11.43
2022-11-08T18:39:12.077Z,13.50
2022-11-08T18:42:17.316Z,11.20
2022-11-08T18:45:20.779Z,10.40
2022-11-08T18:48:25.214Z,9.80
2022-11-08T18:51:28.357Z,14.80
2022-11-08T18:54:32.095Z,12.77
2022-11-08T18:57:36.684Z,9.87
2022-11-08T19:00:40.869Z,12.23
2022-11-08T19:03:43.821Z,12.98
2022-11-08T19:06:54.374Z,11.68
2022-11-08T19:09:59.649Z,14.90
2022-11-08T19:13:08.198Z,13.97
2022-11-08T19:16:17.746Z,14.82
2022-11-08T19:19:21.569Z,17.00
2022-11-08T19:22:25.275Z,13.98
2022-11-08T19:25:28.886Z,15.30
2022-11-08T19:28:34.405Z,12.77
2022-11-08T19:31:37.651Z,10.48
2022-11-08T19:34:42.404Z,9.55
2022-11-08T19:37:46.160Z,11.75
2022-11-08T19:40:51.014Z,15.93
2022-11-08T19:43:58.218Z,12.13
2022-11-08T19:47:01.294Z,12.77
2022-11-08T19:50:05.426Z,10.95
2022-11-08T19:53:08.991Z,12.63
2022-11-08T19:56:15.858Z,13.47
2022-11-08T19:59:20.642Z,13.07
2022-11-08T20:02:26.002Z,9.57
2022-11-08T20:05:29.251Z,14.05
2022-11-08T20:08:32.880Z,11.32
2022-11-08T20:11:43.483Z,13.37
2022-11-08T20:14:49.853Z,14.40
2022-11-08T20:17:53.681Z,14.02
2022-11-08T20:20:57.960Z,11.27
2022-11-08T20:24:01.393Z,12.23
2022-11-08T20:27:05.647Z,12.73
2022-11-08T20:30:09.596Z,13.47
2022-11-08T20:33:16.608Z,12.30
2022-11-08T20:36:23.909Z,14.85
2022-11-08T20:39:28.436Z,15.43
2022-11-08T20:42:31.723Z,17.83
2022-11-08T20:45:39.723Z,15.60
2022-11-08T20:48:44.727Z,13.60
2022-11-08T20:51:48.377Z,16.50
2022-11-08T20:54:51.915Z,14.98
2022-11-08T20:57:55.041Z,13.10
2022-11-08T21:00:59.488Z,16.63
2022-11-08T21:04:02.557Z,18.42
2022-11-08T21:08:00.925Z,16.00
2022-11-08T21:10:42.780Z,18.00
2022-11-08T21:13:47.961Z,12.23
2022-11-08T21:17:20.347Z,11.17
2022-11-08T21:20:15.740Z,13.77
2022-11-08T21:23:19.693Z,13.70
2022-11-08T21:26:23.473Z,18.50
2022-11-08T21:29:27.531Z,15.53
2022-11-08T21:32:30.392Z,17.80
2022-11-08T21:35:33.415Z,15.50
2022-11-08T21:38:37.719Z,21.92
2022-11-08T21:41:40.592Z,22.02
2022-11-08T21:44:42.745Z,20.20
2022-11-08T21:47:49.735Z,21.20
2022-11-08T21:50:52.080Z,12.43
2022-11-08T21:53:56.184Z,20.90
2022-11-08T21:56:58.450Z,11.43
2022-11-08T22:00:00.572Z,15.90
2022-11-08T22:03:02.849Z,18.53
2022-11-08T22:06:05.071Z,14.82
2022-11-08T22:09:07.144Z,14.27
2022-11-08T22:12:09.201Z,18.52
2022-11-08T22:15:11.507Z,14.33
2022-11-08T22:18:16.408Z,17.03
2022-11-08T22:21:43.265Z,16.60
2022-11-08T22:24:45.609Z,16.92
2022-11-08T22:27:47.702Z,15.90
2022-11-08T22:30:51.456Z,18.63
2022-11-08T22:33:53.529Z,17.93
2022-11-08T22:36:55.495Z,13.35
2022-11-08T22:39:57.667Z,14.75
2022-11-08T22:42:59.700Z,16.62
2022-11-08T22:46:02.037Z,14.13
2022-11-08T22:49:04.796Z,13.67
2022-11-08T22:52:06.879Z,12.73
2022-11-08T22:55:09.343Z,9.68
2022-11-08T22:58:12.621Z,11.95
2022-11-08T23:01:15.978Z,15.60
2022-11-08T23:04:19.584Z,17.63
2022-11-08T23:07:21.639Z,15.63
2022-11-08T23:10:23.900Z,17.30
2022-11-08T23:13:44.605Z,13.68
2022-11-08T23:16:47.122Z,15.27
2022-11-08T23:20:07.534Z,14.23
2022-11-08T23:23:29.152Z,12.30
2022-11-08T23:26:50.176Z,16.33
2022-11-08T23:30:10.807Z,11.30
2022-11-08T23:33:12.880Z,16.47
2022-11-08T23:36:15.974Z,17.47
2022-11-08T23:39:18.280Z,11.07
2022-11-08T23:42:39.245Z,12.50
2022-11-08T23:45:41.227Z,10.25
2022-11-08T23:48:43.433Z,12.53
2022-11-08T23:51:45.645Z,16.87
2022-11-08T23:54:47.623Z,11.38
2022-11-08T23:57:49.570Z,15.48
